< < Back
Terminal Aerodrome Forecast


Current Version              Previous Versions:   1  2  3  4  5  6  7  8  9  

Terminal Aerodrome Forecast

736
FTUS42 KMLB 060900 AAA
TAFMCO
TAF AMD
KMCO 060900Z 0609/0706 VRB04KT P6SM SKC
     FM061400 31012KT P6SM FEW040
     FM061700 30013G20KT P6SM FEW050
     FM062300 28011KT P6SM SKC
     FM070200 28006KT P6SM SKC=



Latest METAR

999
SAUS70 KWBC 061500 RRH
MTRMCO
METAR KMCO 061453Z 32009KT 10SM CLR 22/06 A2992 RMK AO2 SLP129 T02170056
51012


USA.gov is the U.S. government's official web portal to all federal, state and local government web resources and services.